createdAt,value
2022-10-31T00:00:48.869Z,9.24
2022-10-31T00:01:48.746Z,9.24
2022-10-31T00:02:48.689Z,9.23
2022-10-31T00:03:48.682Z,9.24
2022-10-31T00:04:48.670Z,9.24
2022-10-31T00:05:48.654Z,9.24
2022-10-31T00:06:48.652Z,9.26
2022-10-31T00:07:48.629Z,9.26
2022-10-31T00:08:48.625Z,9.29
2022-10-31T00:09:48.621Z,9.26
2022-10-31T00:10:48.602Z,9.26
2022-10-31T00:11:48.588Z,9.26
2022-10-31T00:12:48.590Z,9.26
2022-10-31T00:13:48.575Z,9.24
2022-10-31T00:14:48.567Z,9.23
2022-10-31T00:15:48.543Z,9.21
2022-10-31T00:16:48.537Z,9.20
2022-10-31T00:17:48.532Z,9.23
2022-10-31T00:18:48.518Z,9.24
2022-10-31T00:19:48.521Z,9.26
2022-10-31T00:20:48.510Z,9.29
2022-10-31T00:21:48.480Z,9.28
2022-10-31T00:22:48.474Z,9.31
2022-10-31T00:23:48.456Z,9.31
2022-10-31T00:24:48.454Z,9.31
2022-10-31T00:25:48.445Z,9.32
2022-10-31T00:26:48.430Z,9.32
2022-10-31T00:27:48.417Z,9.33
2022-10-31T00:28:48.410Z,9.32
2022-10-31T00:29:48.398Z,9.32
2022-10-31T00:30:48.388Z,9.29
2022-10-31T00:31:48.385Z,9.28
2022-10-31T00:32:48.379Z,9.26
2022-10-31T00:33:48.355Z,9.26
2022-10-31T00:34:48.353Z,9.26
2022-10-31T00:35:48.343Z,9.26
2022-10-31T00:36:48.336Z,9.24
2022-10-31T00:37:48.310Z,9.23
2022-10-31T00:38:48.316Z,9.20
2022-10-31T00:39:48.299Z,9.18
2022-10-31T00:40:48.281Z,9.15
2022-10-31T00:41:48.267Z,9.13
2022-10-31T00:42:48.262Z,9.13
2022-10-31T00:43:48.255Z,9.11
2022-10-31T00:44:48.240Z,9.11
2022-10-31T00:45:48.250Z,9.11
2022-10-31T00:46:48.217Z,9.10
2022-10-31T00:47:48.202Z,9.11
2022-10-31T00:48:48.196Z,9.10
2022-10-31T00:49:48.180Z,9.05
2022-10-31T00:50:48.188Z,9.02
2022-10-31T00:51:48.177Z,9.01
2022-10-31T00:52:48.153Z,8.99
2022-10-31T00:53:48.144Z,8.96
2022-10-31T00:54:48.132Z,8.94
2022-10-31T00:55:48.130Z,8.92
2022-10-31T00:56:48.109Z,8.89
2022-10-31T00:57:48.116Z,8.89
2022-10-31T00:58:48.092Z,8.87
2022-10-31T00:59:48.079Z,8.91
2022-10-31T01:00:50.993Z,8.91
2022-10-31T01:01:48.217Z,8.89
2022-10-31T01:02:48.087Z,8.89
2022-10-31T01:03:48.048Z,8.89
2022-10-31T01:04:48.027Z,8.87
2022-10-31T01:05:48.014Z,8.87
2022-10-31T01:06:48.004Z,8.87
2022-10-31T01:07:47.992Z,8.87
2022-10-31T01:08:47.995Z,8.87
2022-10-31T01:09:47.985Z,8.87
2022-10-31T01:10:47.967Z,8.87
2022-10-31T01:11:47.950Z,8.86
2022-10-31T01:12:47.944Z,8.89
2022-10-31T01:13:47.932Z,8.89
2022-10-31T01:14:47.948Z,8.87
2022-10-31T01:15:47.909Z,8.87
2022-10-31T01:16:47.897Z,8.89
2022-10-31T01:17:47.891Z,8.91
2022-10-31T01:18:47.894Z,8.92
2022-10-31T01:19:47.875Z,8.92
2022-10-31T01:20:47.857Z,8.91
2022-10-31T01:21:47.843Z,8.87
2022-10-31T01:22:47.838Z,8.83
2022-10-31T01:23:47.825Z,8.79
2022-10-31T01:24:47.822Z,8.76
2022-10-31T01:25:47.822Z,8.76
2022-10-31T01:26:47.794Z,8.71
2022-10-31T01:27:47.789Z,8.70
2022-10-31T01:28:47.771Z,8.70
2022-10-31T01:29:47.757Z,8.71
2022-10-31T01:30:47.752Z,8.68
2022-10-31T01:31:47.747Z,8.68
2022-10-31T01:32:47.736Z,8.66
2022-10-31T01:33:47.717Z,8.66
2022-10-31T01:34:47.711Z,8.65
2022-10-31T01:35:47.698Z,8.66
2022-10-31T01:36:47.702Z,8.65
2022-10-31T01:37:47.688Z,8.63
2022-10-31T01:38:47.670Z,8.62
2022-10-31T01:39:47.653Z,8.63
2022-10-31T01:40:47.648Z,8.62
2022-10-31T01:41:47.643Z,8.65
2022-10-31T01:42:47.626Z,8.65
2022-10-31T01:43:47.609Z,8.63
2022-10-31T01:44:47.603Z,8.61
2022-10-31T01:45:47.588Z,8.61
2022-10-31T01:46:47.591Z,8.61
2022-10-31T01:47:47.568Z,8.61
2022-10-31T01:48:47.559Z,8.61
2022-10-31T01:49:47.547Z,8.58
2022-10-31T01:50:47.539Z,8.58
2022-10-31T01:51:47.543Z,8.53
2022-10-31T01:52:47.521Z,8.53
2022-10-31T01:53:47.504Z,8.48
2022-10-31T01:54:47.498Z,8.52
2022-10-31T01:55:47.484Z,8.50
2022-10-31T01:56:47.475Z,8.52
2022-10-31T01:57:47.472Z,8.50
2022-10-31T01:58:47.461Z,8.47
2022-10-31T01:59:47.442Z,8.47
2022-10-31T02:00:47.466Z,8.44
2022-10-31T02:01:47.665Z,8.48
2022-10-31T02:02:47.528Z,8.48
2022-10-31T02:03:47.402Z,8.50
2022-10-31T02:04:47.391Z,8.50
2022-10-31T02:05:47.376Z,8.47
2022-10-31T02:06:47.371Z,8.45
2022-10-31T02:07:47.360Z,8.43
2022-10-31T02:08:47.375Z,8.41
2022-10-31T02:09:47.364Z,8.40
2022-10-31T02:10:47.342Z,8.40
2022-10-31T02:11:47.314Z,8.40
2022-10-31T02:12:47.311Z,8.38
2022-10-31T02:13:47.292Z,8.38
2022-10-31T02:14:47.308Z,8.38
2022-10-31T02:15:47.275Z,8.37
2022-10-31T02:16:47.264Z,8.38
2022-10-31T02:17:47.298Z,8.38
2022-10-31T02:18:47.245Z,8.38
2022-10-31T02:19:47.253Z,8.41
2022-10-31T02:20:47.222Z,8.41
2022-10-31T02:21:47.212Z,8.41
2022-10-31T02:22:47.206Z,8.40
2022-10-31T02:23:50.298Z,8.38
2022-10-31T02:24:47.203Z,8.37
2022-10-31T02:25:47.192Z,8.36
2022-10-31T02:26:47.158Z,8.37
2022-10-31T02:27:47.144Z,8.37
2022-10-31T02:28:47.139Z,8.38
2022-10-31T02:29:47.123Z,8.38
2022-10-31T02:30:47.144Z,8.40
2022-10-31T02:31:47.179Z,8.38
2022-10-31T02:32:47.099Z,8.36
2022-10-31T02:33:47.105Z,8.36
2022-10-31T02:34:47.075Z,8.33
2022-10-31T02:35:47.069Z,8.33
2022-10-31T02:36:47.090Z,8.30
2022-10-31T02:37:47.037Z,8.28
2022-10-31T02:38:47.033Z,8.28
2022-10-31T02:39:47.020Z,8.28
2022-10-31T02:40:47.013Z,8.23
2022-10-31T02:41:47.007Z,8.22
2022-10-31T02:42:47.011Z,8.20
2022-10-31T02:43:46.978Z,8.18
2022-10-31T02:44:46.989Z,8.16
2022-10-31T02:45:46.981Z,8.15
2022-10-31T02:46:46.964Z,8.12
2022-10-31T02:47:46.973Z,8.12
2022-10-31T02:48:46.926Z,8.10
2022-10-31T02:49:46.929Z,8.08
2022-10-31T02:50:46.918Z,8.04
2022-10-31T02:51:46.899Z,8.02
2022-10-31T02:52:46.918Z,8.02
2022-10-31T02:53:46.870Z,8.05
2022-10-31T02:54:46.890Z,8.07
2022-10-31T02:55:46.850Z,8.05
2022-10-31T02:56:46.838Z,8.08
2022-10-31T02:57:46.831Z,8.07
2022-10-31T02:58:46.838Z,8.07
2022-10-31T02:59:46.810Z,8.05
2022-10-31T03:00:49.745Z,8.07
2022-10-31T03:01:46.994Z,8.05
2022-10-31T03:02:46.791Z,8.04
2022-10-31T03:03:46.786Z,8.04
2022-10-31T03:04:46.755Z,8.04
2022-10-31T03:05:46.770Z,8.05
2022-10-31T03:06:46.735Z,8.04
2022-10-31T03:07:46.741Z,8.02
2022-10-31T03:08:46.735Z,8.01
2022-10-31T03:09:46.707Z,7.98
2022-10-31T03:10:46.692Z,7.95
2022-10-31T03:11:46.684Z,7.93
2022-10-31T03:12:48.655Z,7.87
2022-10-31T03:13:46.688Z,7.85
2022-10-31T03:14:46.673Z,7.85
2022-10-31T03:15:46.640Z,7.85
2022-10-31T03:16:46.627Z,7.83
2022-10-31T03:17:46.621Z,7.82
2022-10-31T03:18:46.630Z,7.85
2022-10-31T03:19:46.597Z,7.82
2022-10-31T03:20:46.588Z,7.83
2022-10-31T03:21:46.594Z,7.80
2022-10-31T03:22:46.565Z,7.79
2022-10-31T03:23:46.561Z,7.77
2022-10-31T03:24:46.571Z,7.79
2022-10-31T03:25:46.539Z,7.77
2022-10-31T03:26:46.543Z,7.72
2022-10-31T03:27:46.516Z,7.68
2022-10-31T03:28:46.501Z,7.67
2022-10-31T03:29:46.496Z,7.61
2022-10-31T03:30:46.497Z,7.58
2022-10-31T03:31:46.470Z,7.55
2022-10-31T03:32:46.456Z,7.50
2022-10-31T03:33:46.450Z,7.48
2022-10-31T03:34:46.436Z,7.48
2022-10-31T03:35:46.430Z,7.46
2022-10-31T03:36:46.444Z,7.49
2022-10-31T03:37:46.410Z,7.52
2022-10-31T03:38:46.395Z,7.55
2022-10-31T03:39:46.388Z,7.53
2022-10-31T03:40:46.373Z,7.53
2022-10-31T03:41:46.405Z,7.53
2022-10-31T03:42:46.355Z,7.52
2022-10-31T03:43:46.346Z,7.52
2022-10-31T03:44:46.331Z,7.50
2022-10-31T03:45:46.325Z,7.49
2022-10-31T03:46:46.312Z,7.50
2022-10-31T03:47:46.327Z,7.53
2022-10-31T03:48:46.288Z,7.57
2022-10-31T03:49:46.283Z,7.58
2022-10-31T03:50:46.285Z,7.58
2022-10-31T03:51:46.264Z,7.58
2022-10-31T03:52:46.271Z,7.58
2022-10-31T03:53:46.241Z,7.60
2022-10-31T03:54:46.241Z,7.61
2022-10-31T03:55:46.235Z,7.61
2022-10-31T03:56:46.210Z,7.58
2022-10-31T03:57:46.198Z,7.55
2022-10-31T03:58:46.192Z,7.53
2022-10-31T03:59:46.175Z,7.50
2022-10-31T04:00:46.190Z,7.49
2022-10-31T04:01:46.269Z,7.46
2022-10-31T04:02:46.317Z,7.46
2022-10-31T04:03:46.134Z,7.43
2022-10-31T04:04:46.121Z,7.42
2022-10-31T04:05:46.113Z,7.42
2022-10-31T04:06:46.125Z,7.48
2022-10-31T04:07:46.093Z,7.52
2022-10-31T04:08:46.091Z,7.53
2022-10-31T04:09:46.073Z,7.55
2022-10-31T04:10:46.093Z,7.55
2022-10-31T04:11:46.054Z,7.57
2022-10-31T04:12:46.039Z,7.53
2022-10-31T04:13:46.056Z,7.52
2022-10-31T04:14:46.016Z,7.49
2022-10-31T04:15:46.009Z,7.46
2022-10-31T04:16:46.023Z,7.45
2022-10-31T04:17:45.990Z,7.43
2022-10-31T04:18:45.976Z,7.45
2022-10-31T04:19:45.969Z,7.45
2022-10-31T04:20:45.957Z,7.43
2022-10-31T04:21:45.982Z,7.43
2022-10-31T04:22:45.933Z,7.40
2022-10-31T04:23:45.947Z,7.39
2022-10-31T04:24:45.911Z,7.40
2022-10-31T04:25:45.903Z,7.39
2022-10-31T04:26:45.890Z,7.37
2022-10-31T04:27:45.911Z,7.39
2022-10-31T04:28:45.872Z,7.37
2022-10-31T04:29:48.325Z,7.35
2022-10-31T04:30:45.850Z,7.34
2022-10-31T04:31:45.843Z,7.32
2022-10-31T04:32:45.858Z,7.32
2022-10-31T04:33:45.819Z,7.30
2022-10-31T04:34:45.810Z,7.31
2022-10-31T04:35:45.800Z,7.31
2022-10-31T04:36:45.804Z,7.31
2022-10-31T04:37:45.778Z,7.30
2022-10-31T04:38:45.766Z,7.30
2022-10-31T04:39:45.763Z,7.28
2022-10-31T04:40:45.749Z,7.28
2022-10-31T04:41:45.767Z,7.27
2022-10-31T04:42:45.725Z,7.25
2022-10-31T04:43:45.712Z,7.30
2022-10-31T04:44:45.702Z,7.31
2022-10-31T04:45:45.699Z,7.32
2022-10-31T04:46:45.680Z,7.32
2022-10-31T04:47:45.720Z,7.32
2022-10-31T04:48:45.659Z,7.32
2022-10-31T04:49:45.657Z,7.31
2022-10-31T04:50:45.639Z,7.28
2022-10-31T04:51:45.631Z,7.25
2022-10-31T04:52:45.635Z,7.20
2022-10-31T04:53:45.612Z,7.16
2022-10-31T04:54:45.595Z,7.12
2022-10-31T04:55:45.591Z,7.10
2022-10-31T04:56:45.574Z,7.10
2022-10-31T04:57:45.595Z,7.07
2022-10-31T04:58:45.556Z,7.07
2022-10-31T04:59:45.562Z,7.06
2022-10-31T05:00:45.592Z,7.05
2022-10-31T05:01:45.595Z,7.03
2022-10-31T05:02:45.512Z,6.99
2022-10-31T05:03:45.532Z,6.98
2022-10-31T05:04:45.510Z,7.02
2022-10-31T05:05:45.485Z,7.02
2022-10-31T05:06:45.469Z,7.05
2022-10-31T05:07:45.466Z,7.02
2022-10-31T05:08:45.477Z,7.03
2022-10-31T05:09:45.442Z,7.05
2022-10-31T05:10:45.448Z,7.06
2022-10-31T05:11:45.423Z,7.05
2022-10-31T05:12:45.408Z,7.06
2022-10-31T05:13:45.418Z,7.05
2022-10-31T05:14:48.498Z,7.07
2022-10-31T05:15:45.378Z,7.09
2022-10-31T05:16:45.393Z,7.09
2022-10-31T05:17:45.387Z,7.09
2022-10-31T05:18:45.344Z,7.12
2022-10-31T05:19:45.340Z,7.13
2022-10-31T05:20:45.325Z,7.13
2022-10-31T05:21:45.338Z,7.13
2022-10-31T05:22:45.387Z,7.17
2022-10-31T05:23:47.586Z,7.20
2022-10-31T05:24:45.284Z,7.20
2022-10-31T05:25:45.306Z,7.20
2022-10-31T05:26:45.264Z,7.20
2022-10-31T05:27:45.256Z,7.15
2022-10-31T05:28:45.246Z,7.13
2022-10-31T05:29:45.234Z,7.13
2022-10-31T05:30:45.304Z,7.09
2022-10-31T05:31:45.158Z,7.05
2022-10-31T05:32:45.197Z,6.97
2022-10-31T05:33:45.146Z,6.94
2022-10-31T05:34:45.125Z,6.94
2022-10-31T05:35:45.190Z,6.98
2022-10-31T05:36:45.180Z,6.99
2022-10-31T05:37:45.148Z,6.99
2022-10-31T05:38:45.091Z,6.98
2022-10-31T05:39:45.129Z,6.94
2022-10-31T05:40:45.171Z,6.91
2022-10-31T05:41:45.067Z,6.89
2022-10-31T05:42:45.061Z,6.88
2022-10-31T05:43:45.035Z,6.89
2022-10-31T05:44:45.020Z,6.87
2022-10-31T05:45:45.012Z,6.85
2022-10-31T05:46:45.021Z,6.84
2022-10-31T05:47:44.987Z,6.81
2022-10-31T05:48:44.981Z,6.79
2022-10-31T05:49:44.967Z,6.77
2022-10-31T05:50:44.953Z,6.77
2022-10-31T05:51:44.948Z,6.74
2022-10-31T05:52:44.968Z,6.74
2022-10-31T05:53:44.930Z,6.74
2022-10-31T05:54:44.926Z,6.76
2022-10-31T05:55:44.907Z,6.77
2022-10-31T05:56:44.895Z,6.79
2022-10-31T05:57:44.886Z,6.79
2022-10-31T05:58:44.888Z,6.80
2022-10-31T05:59:44.863Z,6.81
2022-10-31T06:00:44.902Z,6.84
2022-10-31T06:01:44.945Z,6.85
2022-10-31T06:02:44.828Z,6.87
2022-10-31T06:03:44.911Z,6.88
2022-10-31T06:04:44.900Z,6.94
2022-10-31T06:05:46.252Z,6.99
2022-10-31T06:06:44.787Z,7.05
2022-10-31T06:07:44.780Z,7.03
2022-10-31T06:08:44.767Z,7.05
2022-10-31T06:09:44.793Z,7.02
2022-10-31T06:10:44.755Z,7.02
2022-10-31T06:11:44.745Z,6.97
2022-10-31T06:12:44.731Z,6.94
2022-10-31T06:13:44.799Z,6.94
2022-10-31T06:14:44.702Z,6.92
2022-10-31T06:15:44.696Z,6.92
2022-10-31T06:16:44.681Z,6.91
2022-10-31T06:17:44.675Z,6.91
2022-10-31T06:18:44.688Z,6.87
2022-10-31T06:19:44.694Z,6.87
2022-10-31T06:20:44.640Z,6.87
2022-10-31T06:21:44.634Z,6.80
2022-10-31T06:22:44.625Z,6.79
2022-10-31T06:23:44.635Z,6.77
2022-10-31T06:24:44.626Z,6.79
2022-10-31T06:25:44.595Z,6.81
2022-10-31T06:26:44.580Z,6.85
2022-10-31T06:27:44.586Z,6.85
2022-10-31T06:28:44.557Z,6.87
2022-10-31T06:29:44.548Z,6.91
2022-10-31T06:30:44.554Z,6.94
2022-10-31T06:31:44.551Z,6.95
2022-10-31T06:32:44.518Z,6.97
2022-10-31T06:33:44.511Z,6.97
2022-10-31T06:34:44.496Z,6.98
2022-10-31T06:35:44.509Z,7.02
2022-10-31T06:36:44.473Z,7.03
2022-10-31T06:37:46.845Z,7.07
2022-10-31T06:38:44.460Z,7.12
2022-10-31T06:39:44.444Z,7.13
2022-10-31T06:40:44.456Z,7.15
2022-10-31T06:41:44.443Z,7.17
2022-10-31T06:42:44.410Z,7.23
2022-10-31T06:43:44.408Z,7.25
2022-10-31T06:44:44.387Z,7.30
2022-10-31T06:45:43.375Z,7.31
2022-10-31T06:46:44.395Z,7.32
2022-10-31T06:48:10.987Z,7.32
2022-10-31T06:48:44.352Z,7.35
2022-10-31T06:49:44.341Z,7.35
2022-10-31T06:50:44.328Z,7.35
2022-10-31T06:51:44.338Z,7.35
2022-10-31T06:52:44.305Z,7.37
2022-10-31T06:53:44.298Z,7.42
2022-10-31T06:54:44.285Z,7.43
2022-10-31T06:55:44.281Z,7.45
2022-10-31T06:56:44.289Z,7.46
2022-10-31T06:57:44.258Z,7.48
2022-10-31T06:58:44.246Z,7.50
2022-10-31T06:59:44.235Z,7.53
2022-10-31T07:00:44.273Z,7.57
2022-10-31T07:01:44.402Z,7.60
2022-10-31T07:02:44.197Z,7.60
2022-10-31T07:03:44.196Z,7.60
2022-10-31T07:04:44.178Z,7.58
2022-10-31T07:05:44.171Z,7.55
2022-10-31T07:06:48.152Z,7.55
2022-10-31T07:07:44.185Z,7.58
2022-10-31T07:08:44.164Z,7.63
2022-10-31T07:09:44.128Z,7.69
2022-10-31T07:10:44.117Z,7.75
2022-10-31T07:11:44.108Z,7.80
2022-10-31T07:12:44.099Z,7.80
2022-10-31T07:13:44.110Z,7.79
2022-10-31T07:14:44.076Z,7.86
2022-10-31T07:15:44.069Z,7.90
2022-10-31T07:16:44.057Z,7.95
2022-10-31T07:17:44.045Z,8.04
2022-10-31T07:18:44.052Z,8.15
2022-10-31T07:19:44.022Z,8.18
2022-10-31T07:20:44.011Z,8.19
2022-10-31T07:21:44.003Z,8.20
2022-10-31T07:22:48.178Z,8.25
2022-10-31T07:23:44.040Z,8.34
2022-10-31T07:24:43.977Z,8.41
2022-10-31T07:25:43.960Z,8.48
2022-10-31T07:26:43.953Z,8.55
2022-10-31T07:27:43.941Z,8.56
2022-10-31T07:28:43.927Z,8.58
2022-10-31T07:29:43.937Z,8.59
2022-10-31T07:30:43.905Z,8.63
2022-10-31T07:31:43.893Z,8.71
2022-10-31T07:32:43.893Z,8.79
2022-10-31T07:33:43.929Z,8.89
2022-10-31T07:34:47.395Z,8.96
2022-10-31T07:35:43.851Z,9.05
2022-10-31T07:36:43.869Z,9.15
2022-10-31T07:37:43.834Z,9.24
2022-10-31T07:38:43.824Z,9.31
2022-10-31T07:39:43.832Z,9.35
2022-10-31T07:40:43.799Z,9.42
2022-10-31T07:41:43.787Z,9.48
2022-10-31T07:42:43.782Z,9.54
2022-10-31T07:43:43.809Z,9.57
2022-10-31T07:44:43.780Z,9.58
2022-10-31T07:45:43.744Z,9.65
2022-10-31T07:46:43.739Z,9.66
2022-10-31T07:47:43.725Z,9.71
2022-10-31T07:48:43.719Z,9.75
2022-10-31T07:49:43.716Z,9.83
2022-10-31T07:50:43.698Z,9.91
2022-10-31T07:51:46.472Z,10.02
2022-10-31T07:52:43.704Z,10.11
2022-10-31T07:53:43.662Z,10.20
2022-10-31T07:54:43.655Z,10.23
2022-10-31T07:55:43.655Z,10.23
2022-10-31T07:56:43.631Z,10.33
2022-10-31T07:57:43.618Z,10.52
2022-10-31T07:58:43.621Z,10.68
2022-10-31T07:59:43.599Z,10.86
2022-10-31T08:00:43.785Z,11.02
2022-10-31T08:01:43.580Z,11.09
2022-10-31T08:02:43.613Z,11.18
2022-10-31T08:03:43.587Z,11.25
2022-10-31T08:04:43.555Z,11.32
2022-10-31T08:05:43.535Z,11.25
2022-10-31T08:06:43.525Z,11.24
2022-10-31T08:07:43.513Z,11.25
2022-10-31T08:08:43.523Z,11.21
2022-10-31T08:09:43.493Z,11.22
2022-10-31T08:10:43.483Z,11.29
2022-10-31T08:11:43.469Z,11.36
2022-10-31T08:12:43.470Z,11.46
2022-10-31T08:13:43.448Z,11.54
2022-10-31T08:14:43.450Z,11.54
2022-10-31T08:15:43.430Z,11.60
2022-10-31T08:16:43.420Z,11.72
2022-10-31T08:17:43.409Z,11.82
2022-10-31T08:18:43.398Z,11.90
2022-10-31T08:19:43.397Z,12.02
2022-10-31T08:20:43.383Z,12.05
2022-10-31T08:21:43.368Z,12.09
2022-10-31T08:22:44.028Z,12.17
2022-10-31T08:23:43.350Z,12.28
2022-10-31T08:24:43.339Z,12.38
2022-10-31T08:25:43.355Z,12.41
2022-10-31T08:26:43.320Z,12.47
2022-10-31T08:27:43.301Z,12.53
2022-10-31T08:28:43.293Z,12.57
2022-10-31T08:29:43.281Z,12.62
2022-10-31T08:30:43.284Z,12.67
2022-10-31T08:31:43.285Z,12.67
2022-10-31T08:32:43.254Z,12.70
2022-10-31T08:33:43.241Z,12.79
2022-10-31T08:34:43.233Z,12.87
2022-10-31T08:35:43.224Z,12.89
2022-10-31T08:36:43.215Z,12.97
2022-10-31T08:37:43.206Z,13.00
2022-10-31T08:38:43.188Z,13.04
2022-10-31T08:39:43.178Z,13.07
2022-10-31T08:40:43.184Z,13.10
2022-10-31T08:41:43.181Z,13.05
2022-10-31T08:42:43.151Z,13.07
2022-10-31T08:43:43.270Z,13.11
2022-10-31T08:44:43.146Z,13.15
2022-10-31T08:45:43.119Z,13.22
2022-10-31T08:46:43.107Z,13.20
2022-10-31T08:47:43.121Z,13.26
2022-10-31T08:48:43.087Z,13.36
2022-10-31T08:49:43.077Z,13.41
2022-10-31T08:50:43.062Z,13.42
2022-10-31T08:51:43.052Z,13.38
2022-10-31T08:53:03.473Z,13.38
2022-10-31T08:53:43.066Z,13.42
2022-10-31T08:54:43.022Z,13.46
2022-10-31T08:55:43.013Z,13.46
2022-10-31T08:56:43.007Z,13.52
2022-10-31T08:57:43.003Z,13.60
2022-10-31T08:58:43.021Z,13.62
2022-10-31T08:59:43.752Z,13.71
2022-10-31T09:00:42.990Z,13.75
2022-10-31T09:01:43.065Z,13.73
2022-10-31T09:02:42.947Z,13.77
2022-10-31T09:03:42.930Z,13.91
2022-10-31T09:04:42.966Z,14.00
2022-10-31T09:05:43.001Z,13.99
2022-10-31T09:06:55.440Z,14.07
2022-10-31T09:07:42.887Z,14.21
2022-10-31T09:08:42.885Z,14.35
2022-10-31T09:09:42.862Z,14.43
2022-10-31T09:10:42.892Z,14.51
2022-10-31T09:11:42.837Z,14.65
2022-10-31T09:12:42.923Z,14.75
2022-10-31T09:13:42.950Z,14.68
2022-10-31T09:14:42.808Z,14.64
2022-10-31T09:15:42.792Z,14.62
2022-10-31T09:16:42.886Z,14.68
2022-10-31T09:17:42.771Z,14.78
2022-10-31T09:18:42.832Z,14.70
2022-10-31T09:19:42.769Z,14.57
2022-10-31T09:20:42.741Z,14.57
2022-10-31T09:21:42.731Z,14.83
2022-10-31T09:22:43.452Z,14.99
2022-10-31T09:23:42.709Z,14.99
2022-10-31T09:24:42.704Z,14.96
2022-10-31T09:25:46.273Z,14.99
2022-10-31T09:26:42.691Z,15.19
2022-10-31T09:27:42.678Z,15.27
2022-10-31T09:28:42.657Z,15.19
2022-10-31T09:29:42.720Z,15.11
2022-10-31T09:30:42.648Z,15.13
2022-10-31T09:31:45.025Z,15.38
2022-10-31T09:32:42.619Z,15.57
2022-10-31T09:33:42.601Z,15.53
2022-10-31T09:34:42.594Z,15.56
2022-10-31T09:35:42.632Z,15.76
2022-10-31T09:36:42.585Z,16.01
2022-10-31T09:37:42.558Z,16.15
2022-10-31T09:38:42.552Z,16.24
2022-10-31T09:39:42.541Z,16.27
2022-10-31T09:40:42.530Z,16.42
2022-10-31T09:41:42.526Z,16.61
2022-10-31T09:42:42.521Z,16.73
2022-10-31T09:43:42.508Z,16.86
2022-10-31T09:44:42.503Z,17.07
2022-10-31T09:45:42.474Z,17.11
2022-10-31T09:46:42.465Z,16.97
2022-10-31T09:47:42.469Z,17.03
2022-10-31T09:48:42.444Z,17.08
2022-10-31T09:49:42.500Z,17.21
2022-10-31T09:50:42.421Z,17.37
2022-10-31T09:51:42.410Z,17.51
2022-10-31T09:52:42.398Z,17.71
2022-10-31T09:53:42.399Z,17.66
2022-10-31T09:54:42.378Z,17.89
2022-10-31T09:55:42.393Z,18.02
2022-10-31T09:56:42.357Z,18.00
2022-10-31T09:57:42.355Z,18.12
2022-10-31T09:58:42.336Z,18.26
2022-10-31T09:59:42.334Z,18.29
2022-10-31T10:00:42.393Z,18.37
2022-10-31T10:01:42.395Z,18.41
2022-10-31T10:02:42.295Z,18.54
2022-10-31T10:03:42.297Z,18.52
2022-10-31T10:04:42.309Z,18.70
2022-10-31T10:05:42.264Z,18.92
2022-10-31T10:06:42.256Z,18.98
2022-10-31T10:07:42.241Z,19.14
2022-10-31T10:08:42.244Z,19.26
2022-10-31T10:09:42.223Z,19.39
2022-10-31T10:10:42.227Z,19.40
2022-10-31T10:11:42.194Z,19.46
2022-10-31T10:12:42.187Z,19.46
2022-10-31T10:13:42.181Z,19.56
2022-10-31T10:14:42.167Z,19.68
2022-10-31T10:15:42.167Z,19.65
2022-10-31T10:16:42.174Z,19.56
2022-10-31T10:17:42.200Z,19.61
2022-10-31T10:18:42.125Z,19.48
2022-10-31T10:19:42.109Z,19.59
2022-10-31T10:20:42.100Z,19.74
2022-10-31T10:21:42.093Z,19.95
2022-10-31T10:22:42.109Z,19.92
2022-10-31T10:23:42.066Z,19.98
2022-10-31T10:24:42.058Z,19.99
2022-10-31T10:25:42.052Z,20.17
2022-10-31T10:26:42.061Z,20.13
2022-10-31T10:27:42.029Z,20.23
2022-10-31T10:28:42.028Z,20.36
2022-10-31T10:29:42.007Z,20.08
2022-10-31T10:30:41.994Z,20.18
2022-10-31T10:31:41.982Z,20.41
2022-10-31T10:32:41.969Z,20.41
2022-10-31T10:33:41.971Z,20.39
2022-10-31T10:34:41.951Z,20.50
2022-10-31T10:35:41.936Z,20.51
2022-10-31T10:36:42.193Z,20.57
2022-10-31T10:37:41.915Z,20.77
2022-10-31T10:38:41.905Z,21.03
2022-10-31T10:39:41.906Z,21.12
2022-10-31T10:40:41.890Z,21.21
2022-10-31T10:41:41.874Z,21.28
2022-10-31T10:42:41.863Z,21.44
2022-10-31T10:43:41.899Z,21.62
2022-10-31T10:44:41.844Z,21.58
2022-10-31T10:45:41.832Z,21.54
2022-10-31T10:46:41.846Z,21.46
2022-10-31T10:47:41.861Z,21.12
2022-10-31T10:48:41.815Z,21.10
2022-10-31T10:49:41.791Z,21.31
2022-10-31T10:50:41.797Z,21.52
2022-10-31T10:52:45.906Z,21.34
2022-10-31T10:53:41.759Z,21.22
2022-10-31T10:54:41.737Z,21.38
2022-10-31T10:55:41.731Z,21.65
2022-10-31T10:56:41.718Z,21.77
2022-10-31T10:57:41.708Z,21.62
2022-10-31T10:58:41.724Z,21.54
2022-10-31T10:59:41.686Z,21.49
2022-10-31T11:00:41.794Z,21.38
2022-10-31T11:01:41.673Z,21.37
2022-10-31T11:02:42.850Z,21.37
2022-10-31T11:03:41.650Z,21.03
2022-10-31T11:04:41.661Z,20.77
2022-10-31T11:05:41.642Z,20.62
2022-10-31T11:06:41.613Z,20.69
2022-10-31T11:07:41.608Z,20.67
2022-10-31T11:08:41.596Z,20.84
2022-10-31T11:09:41.580Z,20.97
2022-10-31T11:10:41.569Z,20.85
2022-10-31T11:11:41.559Z,20.59
2022-10-31T11:12:41.549Z,20.55
2022-10-31T11:13:41.545Z,20.59
2022-10-31T11:14:41.534Z,20.67
2022-10-31T11:15:41.515Z,20.55
2022-10-31T11:16:41.748Z,20.51
2022-10-31T11:17:41.509Z,20.43
2022-10-31T11:18:41.486Z,20.33
2022-10-31T11:19:41.470Z,20.35
2022-10-31T11:20:41.473Z,20.33
2022-10-31T11:21:41.448Z,20.54
2022-10-31T11:22:41.449Z,20.69
2022-10-31T11:23:41.433Z,20.73
2022-10-31T11:24:41.416Z,20.77
2022-10-31T11:25:41.418Z,20.67
2022-10-31T11:26:41.401Z,20.62
2022-10-31T11:27:41.383Z,20.61
2022-10-31T11:28:41.373Z,20.29
2022-10-31T11:29:41.376Z,20.11
2022-10-31T11:30:41.348Z,20.20
2022-10-31T11:31:41.341Z,20.36
2022-10-31T11:32:41.337Z,20.54
2022-10-31T11:33:41.323Z,20.69
2022-10-31T11:34:41.306Z,20.85
2022-10-31T11:35:41.325Z,20.94
2022-10-31T11:36:41.283Z,20.95
2022-10-31T11:37:41.277Z,20.94
2022-10-31T11:38:41.274Z,20.87
2022-10-31T11:39:41.253Z,21.04
2022-10-31T11:40:41.250Z,21.17
2022-10-31T11:41:41.234Z,21.32
2022-10-31T11:42:41.222Z,21.34
2022-10-31T11:43:41.211Z,21.35
2022-10-31T11:44:41.196Z,21.49
2022-10-31T11:45:41.200Z,21.67
2022-10-31T11:46:41.177Z,21.80
2022-10-31T11:47:41.167Z,21.96
2022-10-31T11:48:41.156Z,21.94
2022-10-31T11:49:41.147Z,21.75
2022-10-31T11:50:41.147Z,21.69
2022-10-31T11:51:41.123Z,21.47
2022-10-31T11:52:41.110Z,21.42
2022-10-31T11:53:41.116Z,21.37
2022-10-31T11:54:41.087Z,21.27
2022-10-31T11:55:41.086Z,21.43
2022-10-31T11:56:41.076Z,21.67
2022-10-31T11:57:41.059Z,21.75
2022-10-31T11:58:41.049Z,21.75
2022-10-31T11:59:41.039Z,21.82
2022-10-31T12:00:41.039Z,21.80
2022-10-31T12:01:44.191Z,21.88
2022-10-31T12:02:41.038Z,22.05
2022-10-31T12:03:40.994Z,22.03
2022-10-31T12:04:40.982Z,22.15
2022-10-31T12:05:40.978Z,22.25
2022-10-31T12:06:40.961Z,22.27
2022-10-31T12:07:40.984Z,22.31
2022-10-31T12:08:40.938Z,22.05
2022-10-31T12:09:40.937Z,21.88
2022-10-31T12:10:40.925Z,21.94
2022-10-31T12:11:40.918Z,22.03
2022-10-31T12:12:40.910Z,22.06
2022-10-31T12:13:40.889Z,21.91
2022-10-31T12:14:40.876Z,21.80
2022-10-31T12:15:40.887Z,21.79
2022-10-31T12:16:40.876Z,21.82
2022-10-31T12:17:40.853Z,21.91
2022-10-31T12:18:40.831Z,21.96
2022-10-31T12:19:40.826Z,21.86
2022-10-31T12:20:40.810Z,21.77
2022-10-31T12:21:40.805Z,21.62
2022-10-31T12:22:40.808Z,21.46
2022-10-31T12:23:40.785Z,21.44
2022-10-31T12:24:40.768Z,21.32
2022-10-31T12:25:40.759Z,21.38
2022-10-31T12:26:40.748Z,21.44
2022-10-31T12:27:40.737Z,21.52
2022-10-31T12:28:44.873Z,21.61
2022-10-31T12:29:40.721Z,21.74
2022-10-31T12:30:40.699Z,21.71
2022-10-31T12:31:40.695Z,21.69
2022-10-31T12:32:40.686Z,21.79
2022-10-31T12:33:40.674Z,21.94
2022-10-31T12:34:44.808Z,22.00
2022-10-31T12:36:40.634Z,22.15
2022-10-31T12:37:40.630Z,21.91
2022-10-31T12:38:40.625Z,21.71
2022-10-31T12:39:40.619Z,21.74
2022-10-31T12:40:40.606Z,21.80
2022-10-31T12:41:40.586Z,21.98
2022-10-31T12:42:40.573Z,22.07
2022-10-31T12:43:40.563Z,22.06
2022-10-31T12:44:40.578Z,21.91
2022-10-31T12:45:40.543Z,21.59
2022-10-31T12:46:40.529Z,21.38
2022-10-31T12:47:40.518Z,21.32
2022-10-31T12:48:40.511Z,21.31
2022-10-31T12:49:40.508Z,21.32
2022-10-31T12:50:40.505Z,21.28
2022-10-31T12:51:40.509Z,21.28
2022-10-31T12:52:40.462Z,21.35
2022-10-31T12:53:40.454Z,21.40
2022-10-31T12:54:44.037Z,21.37
2022-10-31T12:55:40.444Z,21.42
2022-10-31T12:56:40.430Z,21.25
2022-10-31T12:57:40.426Z,21.25
2022-10-31T12:58:39.396Z,21.24
2022-10-31T12:59:40.391Z,21.27
2022-10-31T13:00:40.437Z,21.28
2022-10-31T13:01:40.553Z,21.28
2022-10-31T13:02:40.358Z,21.31
2022-10-31T13:03:40.349Z,21.37
2022-10-31T13:04:40.457Z,21.42
2022-10-31T13:05:40.331Z,21.44
2022-10-31T13:06:44.490Z,21.49
2022-10-31T13:07:40.323Z,21.43
2022-10-31T13:08:40.303Z,21.44
2022-10-31T13:09:40.288Z,21.40